Time;durP1;ratioP1;P1;durP2;ratioP2;P2;SDS_P1;SDS_P2;PMS_P1;PMS_P2;Temp;Humidity;BMP_temperature;BMP_pressure;BME280_temperature;BME280_humidity;BME280_pressure;Samples;Min_cycle;Max_cycle;Signal;HPM_P1;HPM_P2
2022/05/27 00:01:45;;;;;;;;;;;14.60;99.90;;;;;;5005282;28;19922;-67
2022/05/27 00:04:11;;;;;;;;;;;14.50;99.90;;;;;;4999719;28;19929;-71
2022/05/27 00:06:37;;;;;;;;;;;14.50;99.90;;;;;;5009627;28;19921;-69
2022/05/27 00:09:03;;;;;;;;;;;14.50;99.90;;;;;;4990252;28;20282;-67
2022/05/27 00:11:29;;;;;;;;;;;14.50;99.90;;;;;;4989391;28;19929;-68
2022/05/27 00:13:55;;;;;;;;;;;14.50;99.90;;;;;;4992610;28;20000;-68
2022/05/27 00:16:21;;;;;;;;;;;14.50;99.90;;;;;;4993711;28;19921;-69
2022/05/27 00:18:47;;;;;;;;;;;14.40;99.90;;;;;;5004766;28;19979;-67
2022/05/27 00:21:13;;;;;;;;;;;14.40;99.90;;;;;;4991542;28;19961;-68
2022/05/27 00:23:39;;;;;;;;;;;14.40;99.90;;;;;;4995625;28;19976;-72
2022/05/27 00:26:06;;;;;;;;;;;14.40;99.90;;;;;;5006899;28;19976;-68
2022/05/27 00:28:32;;;;;;;;;;;14.30;99.90;;;;;;4985328;28;20393;-68
2022/05/27 00:30:57;;;;;;;;;;;14.20;99.90;;;;;;4990203;28;19936;-69
2022/05/27 00:33:23;;;;;;;;;;;14.20;99.90;;;;;;5004882;28;20374;-68
2022/05/27 00:35:50;;;;;;;;;;;14.10;99.90;;;;;;5010414;28;20362;-67
2022/05/27 00:38:15;;;;;;;;;;;14.10;99.90;;;;;;5013719;28;19928;-67
2022/05/27 00:40:46;;;;;;;;;;;14.00;99.90;;;;;;5003947;28;19922;-69
2022/05/27 00:43:12;;;;;;;;;;;14.00;99.90;;;;;;5013101;28;19976;-68
2022/05/27 00:45:39;;;;;;;;;;;14.00;99.90;;;;;;4996593;28;19972;-68
2022/05/27 00:48:10;;;;;;;;;;;14.00;99.90;;;;;;4996964;28;20354;-68
2022/05/27 00:50:38;;;;;;;;;;;13.90;99.90;;;;;;4995882;28;20370;-68
2022/05/27 00:53:06;;;;;;;;;;;13.90;99.90;;;;;;4989224;28;19930;-68
2022/05/27 00:55:34;;;;;;;;;;;13.80;99.90;;;;;;4988989;28;19921;-67
2022/05/27 00:58:03;;;;;;;;;;;13.80;99.90;;;;;;4977236;28;19984;-67
2022/05/27 01:00:29;;;;;;;;;;;13.80;99.90;;;;;;4989532;28;19927;-69
2022/05/27 01:02:55;;;;;;;;;;;13.70;99.90;;;;;;5010544;28;19921;-68
2022/05/27 01:05:22;;;;;;;;;;;13.60;99.90;;;;;;4996788;28;19972;-68
2022/05/27 01:07:50;;;;;;;;;;;13.60;99.90;;;;;;4990958;28;19976;-67
2022/05/27 01:10:17;;;;;;;;;;;13.60;99.90;;;;;;4992481;28;19922;-67
2022/05/27 01:12:55;;;;;;;;;;;13.50;99.90;;;;;;4988849;28;20453;-69
2022/05/27 01:15:40;;;;;;;;;;;13.40;99.90;;;;;;5011716;28;19988;-67
2022/05/27 01:18:05;;;;;;;;;;;13.40;99.90;;;;;;4994143;28;19965;-67
2022/05/27 01:20:34;;;;;;;;;;;13.30;99.90;;;;;;4988139;28;20006;-68
2022/05/27 01:23:09;;;;;;;;;;;13.30;99.90;;;;;;5005930;28;20366;-67
2022/05/27 01:25:50;;;;;;;;;;;13.20;99.90;;;;;;4995280;28;19929;-67
2022/05/27 01:28:51;;;;;;;;;;;13.30;99.90;;;;;;4991091;28;19921;-70
2022/05/27 01:31:22;;;;;;;;;;;13.20;99.90;;;;;;4949040;28;19925;-67
2022/05/27 01:34:07;;;;;;;;;;;13.20;99.90;;;;;;4984996;28;19971;-68
2022/05/27 01:36:42;;;;;;;;;;;13.20;99.90;;;;;;4982561;28;20374;-68
2022/05/27 01:39:13;;;;;;;;;;;13.20;99.90;;;;;;4990683;28;19928;-70
2022/05/27 01:41:49;;;;;;;;;;;13.20;99.90;;;;;;4998343;28;19927;-69
2022/05/27 01:44:20;;;;;;;;;;;13.20;99.90;;;;;;4993629;28;19932;-67
2022/05/27 01:46:47;;;;;;;;;;;13.10;99.90;;;;;;4986797;28;19933;-67
2022/05/27 01:49:33;;;;;;;;;;;13.20;99.90;;;;;;4985410;28;19932;-68
2022/05/27 01:52:21;;;;;;;;;;;13.20;99.90;;;;;;4995633;28;20359;-67
2022/05/27 01:55:16;;;;;;;;;;;13.10;99.90;;;;;;5007935;28;20397;-69
2022/05/27 01:57:41;;;;;;;;;;;13.10;99.90;;;;;;4978551;28;19921;-67
2022/05/27 02:00:20;;;;;;;;;;;13.10;99.90;;;;;;4979751;28;20018;-68
2022/05/27 02:02:52;;;;;;;;;;;13.10;99.90;;;;;;5010256;28;19967;-69
2022/05/27 02:05:20;;;;;;;;;;;13.10;99.90;;;;;;4994779;28;19932;-67
2022/05/27 02:07:49;;;;;;;;;;;13.10;99.90;;;;;;4981849;28;19922;-67
2022/05/27 02:10:17;;;;;;;;;;;13.00;99.90;;;;;;4981315;28;19921;-68
2022/05/27 02:12:53;;;;;;;;;;;13.00;99.90;;;;;;5006012;28;19922;-68
2022/05/27 02:15:23;;;;;;;;;;;12.90;99.90;;;;;;4992964;28;19925;-68
2022/05/27 02:17:58;;;;;;;;;;;13.00;99.90;;;;;;4995594;28;19925;-68
2022/05/27 02:20:27;;;;;;;;;;;12.80;99.90;;;;;;5010342;28;19961;-67
2022/05/27 02:23:03;;;;;;;;;;;12.80;99.90;;;;;;4992893;28;19928;-68
2022/05/27 02:25:32;;;;;;;;;;;12.80;99.90;;;;;;4992084;28;19983;-70
2022/05/27 02:28:04;;;;;;;;;;;12.70;99.90;;;;;;4994525;28;19921;-69
2022/05/27 02:30:32;;;;;;;;;;;12.70;99.90;;;;;;4986768;28;20358;-67
2022/05/27 02:35:50;;;;;;;;;;;12.60;99.90;;;;;;4993024;28;20257;-67
2022/05/27 02:38:16;;;;;;;;;;;12.60;99.90;;;;;;4995213;28;19922;-68
2022/05/27 02:40:48;;;;;;;;;;;12.60;99.90;;;;;;4975002;28;19929;-68
2022/05/27 02:43:26;;;;;;;;;;;12.50;99.90;;;;;;4991719;28;19929;-68
2022/05/27 02:45:54;;;;;;;;;;;12.50;99.90;;;;;;4983115;28;19922;-67
2022/05/27 02:48:29;;;;;;;;;;;12.40;99.90;;;;;;4978936;28;19928;-67
2022/05/27 02:50:55;;;;;;;;;;;12.30;99.90;;;;;;5010240;28;19928;-67
2022/05/27 02:53:21;;;;;;;;;;;12.30;99.90;;;;;;4982084;28;20290;-68
2022/05/27 02:55:57;;;;;;;;;;;12.20;99.90;;;;;;4982698;28;19925;-69
2022/05/27 02:58:23;;;;;;;;;;;12.20;99.90;;;;;;4992492;28;19921;-68
2022/05/27 03:00:49;;;;;;;;;;;12.10;99.90;;;;;;5007201;28;19976;-68
2022/05/27 03:03:14;;;;;;;;;;;12.10;99.90;;;;;;5001309;28;19925;-67
2022/05/27 03:05:40;;;;;;;;;;;12.10;99.90;;;;;;4977702;28;20263;-68
2022/05/27 03:08:12;;;;;;;;;;;12.00;99.90;;;;;;4993826;28;20042;-67
2022/05/27 03:10:41;;;;;;;;;;;12.00;99.90;;;;;;4990027;28;19922;-68
2022/05/27 03:13:18;;;;;;;;;;;12.00;99.90;;;;;;4991589;28;19929;-68
2022/05/27 03:16:00;;;;;;;;;;;12.00;99.90;;;;;;4976655;28;19925;-68
2022/05/27 03:18:41;;;;;;;;;;;11.90;99.90;;;;;;5002508;28;20012;-67
2022/05/27 03:21:12;;;;;;;;;;;11.80;99.90;;;;;;4977583;28;19921;-68
2022/05/27 03:23:47;;;;;;;;;;;11.70;99.90;;;;;;4987157;28;20366;-68
2022/05/27 03:26:21;;;;;;;;;;;11.70;99.90;;;;;;4996695;28;19922;-67
2022/05/27 03:29:05;;;;;;;;;;;11.60;99.90;;;;;;4988470;28;20027;-69
2022/05/27 03:31:41;;;;;;;;;;;11.60;99.90;;;;;;4995953;28;20019;-69
2022/05/27 03:34:18;;;;;;;;;;;11.60;99.90;;;;;;5012226;28;19957;-67
2022/05/27 03:36:54;;;;;;;;;;;11.60;99.90;;;;;;4985469;28;20016;-71
2022/05/27 03:39:22;;;;;;;;;;;11.60;99.90;;;;;;4991496;28;19921;-67
2022/05/27 03:42:08;;;;;;;;;;;11.60;99.90;;;;;;4997634;28;19932;-68
2022/05/27 03:44:35;;;;;;;;;;;11.50;99.90;;;;;;4993237;28;19925;-68
2022/05/27 03:47:01;;;;;;;;;;;11.60;99.90;;;;;;4978642;28;19921;-68
2022/05/27 03:49:28;;;;;;;;;;;11.50;99.90;;;;;;4990492;28;19971;-67
2022/05/27 03:51:57;;;;;;;;;;;11.50;99.90;;;;;;5001945;28;19972;-68
2022/05/27 03:54:23;;;;;;;;;;;11.40;99.90;;;;;;5012549;28;20020;-67
2022/05/27 03:56:49;;;;;;;;;;;11.50;99.90;;;;;;4997540;28;19932;-67
2022/05/27 03:59:16;;;;;;;;;;;11.50;99.90;;;;;;4996140;28;19929;-67
2022/05/27 04:01:44;;;;;;;;;;;11.50;99.90;;;;;;4997077;28;19921;-67
2022/05/27 04:04:11;;;;;;;;;;;11.60;99.90;;;;;;4980459;28;19925;-67
2022/05/27 04:06:37;;;;;;;;;;;11.50;99.90;;;;;;4986084;28;19921;-67
2022/05/27 04:09:03;;;;;;;;;;;11.50;99.90;;;;;;4997209;28;19925;-68
2022/05/27 04:11:30;;;;;;;;;;;11.50;99.90;;;;;;4997858;28;20389;-68
2022/05/27 04:13:56;;;;;;;;;;;11.60;99.90;;;;;;4996375;28;19921;-68
2022/05/27 04:16:23;;;;;;;;;;;11.60;99.90;;;;;;5011329;28;19921;-68
2022/05/27 04:18:49;;;;;;;;;;;11.60;99.90;;;;;;4993430;28;19926;-68
2022/05/27 04:21:15;;;;;;;;;;;11.70;99.90;;;;;;5010427;28;20349;-69
2022/05/27 04:23:41;;;;;;;;;;;11.70;99.90;;;;;;4993809;28;19922;-68
2022/05/27 04:26:07;;;;;;;;;;;11.70;99.90;;;;;;4985371;28;20435;-68
2022/05/27 04:28:34;;;;;;;;;;;11.80;99.90;;;;;;5007523;28;19921;-68
2022/05/27 04:31:00;;;;;;;;;;;11.70;99.90;;;;;;4986385;28;19922;-68
2022/05/27 04:33:27;;;;;;;;;;;11.80;99.90;;;;;;4991398;28;19922;-68
2022/05/27 04:35:54;;;;;;;;;;;11.70;99.90;;;;;;4990643;28;19921;-68
2022/05/27 04:38:21;;;;;;;;;;;11.80;99.90;;;;;;4996687;28;19928;-67
2022/05/27 04:40:47;;;;;;;;;;;11.80;99.90;;;;;;4995864;28;19926;-68
2022/05/27 04:43:13;;;;;;;;;;;11.80;99.90;;;;;;4997354;28;20336;-67
2022/05/27 04:45:40;;;;;;;;;;;11.90;99.90;;;;;;4996127;28;19929;-68
2022/05/27 04:48:06;;;;;;;;;;;12.00;99.90;;;;;;5013671;28;19929;-69
2022/05/27 04:50:32;;;;;;;;;;;12.00;99.90;;;;;;4992905;28;19921;-68
2022/05/27 04:52:58;;;;;;;;;;;12.10;99.90;;;;;;4993270;28;20259;-70
2022/05/27 04:55:24;;;;;;;;;;;12.20;99.90;;;;;;4982362;28;19921;-68
2022/05/27 04:57:51;;;;;;;;;;;12.20;99.90;;;;;;4996850;28;19928;-67
2022/05/27 05:00:19;;;;;;;;;;;12.30;99.90;;;;;;4986005;28;20032;-67
2022/05/27 05:02:44;;;;;;;;;;;12.40;99.90;;;;;;4978760;28;19944;-69
2022/05/27 05:05:11;;;;;;;;;;;12.40;99.90;;;;;;4991489;28;20424;-68
2022/05/27 05:07:40;;;;;;;;;;;12.40;99.90;;;;;;5013395;28;20026;-67
2022/05/27 05:10:06;;;;;;;;;;;12.50;99.90;;;;;;4996338;28;20043;-68
2022/05/27 05:12:32;;;;;;;;;;;12.50;99.90;;;;;;4988118;28;20290;-68
2022/05/27 05:14:57;;;;;;;;;;;12.60;99.90;;;;;;4987932;28;19921;-68
2022/05/27 05:17:23;;;;;;;;;;;12.60;99.90;;;;;;5008478;28;19921;-67
2022/05/27 05:19:53;;;;;;;;;;;12.60;99.90;;;;;;4994870;28;19925;-68
2022/05/27 05:22:20;;;;;;;;;;;12.60;99.90;;;;;;4985540;28;21157;-67
2022/05/27 05:24:46;;;;;;;;;;;12.50;99.90;;;;;;4983543;28;20000;-68
2022/05/27 05:27:11;;;;;;;;;;;12.60;99.90;;;;;;5008671;28;20000;-70
2022/05/27 05:29:37;;;;;;;;;;;12.60;99.90;;;;;;4988423;28;19925;-68
2022/05/27 05:32:04;;;;;;;;;;;12.60;99.90;;;;;;4996449;28;20016;-67
2022/05/27 05:34:30;;;;;;;;;;;12.80;99.90;;;;;;4984547;28;20383;-68
2022/05/27 05:36:56;;;;;;;;;;;12.60;99.90;;;;;;4988163;28;19922;-67
2022/05/27 05:39:22;;;;;;;;;;;12.60;99.90;;;;;;4992350;28;20390;-68
2022/05/27 05:41:55;;;;;;;;;;;12.60;99.90;;;;;;4988738;28;19926;-67
2022/05/27 05:44:21;;;;;;;;;;;12.60;99.90;;;;;;4992822;28;19921;-69
2022/05/27 05:46:48;;;;;;;;;;;12.80;99.90;;;;;;4996540;28;19925;-69
2022/05/27 05:49:13;;;;;;;;;;;12.90;99.90;;;;;;4994718;28;19921;-70
2022/05/27 05:51:39;;;;;;;;;;;12.90;99.90;;;;;;5010599;28;19921;-68
2022/05/27 05:54:05;;;;;;;;;;;13.00;99.90;;;;;;4982376;28;19922;-69
2022/05/27 05:56:33;;;;;;;;;;;12.90;99.90;;;;;;4986299;28;20400;-67
2022/05/27 05:58:59;;;;;;;;;;;12.90;99.90;;;;;;4986330;28;19983;-69
2022/05/27 06:01:25;;;;;;;;;;;12.90;99.90;;;;;;4996157;28;19926;-70
2022/05/27 06:03:52;;;;;;;;;;;12.90;99.90;;;;;;4978891;28;19926;-68
2022/05/27 06:06:18;;;;;;;;;;;12.90;99.90;;;;;;4996042;28;19926;-68
2022/05/27 06:08:43;;;;;;;;;;;13.00;99.90;;;;;;4990962;28;20342;-67
2022/05/27 06:11:10;;;;;;;;;;;13.00;99.90;;;;;;4978751;28;20401;-68
2022/05/27 06:13:36;;;;;;;;;;;13.10;99.90;;;;;;4994425;28;19929;-67
2022/05/27 06:16:02;;;;;;;;;;;13.20;99.90;;;;;;4994197;28;19921;-68
2022/05/27 06:18:29;;;;;;;;;;;13.10;99.90;;;;;;4991761;28;20003;-69
2022/05/27 06:20:54;;;;;;;;;;;13.10;99.90;;;;;;5003661;28;19948;-67
2022/05/27 06:23:21;;;;;;;;;;;13.30;99.90;;;;;;5011858;28;20408;-68
2022/05/27 06:25:54;;;;;;;;;;;13.40;99.90;;;;;;4991847;28;19935;-68
2022/05/27 06:36:35;;;;;;;;;;;13.80;99.90;;;;;;5006522;28;19922;-70
2022/05/27 06:39:01;;;;;;;;;;;13.90;99.90;;;;;;5006778;28;19921;-67
2022/05/27 06:41:27;;;;;;;;;;;14.00;99.90;;;;;;5011628;28;20341;-69
2022/05/27 06:43:52;;;;;;;;;;;13.90;99.90;;;;;;5011158;28;19921;-69
2022/05/27 06:46:18;;;;;;;;;;;14.00;99.90;;;;;;4992626;28;19984;-69
2022/05/27 06:48:44;;;;;;;;;;;14.00;99.90;;;;;;4992926;28;19969;-69
2022/05/27 06:51:09;;;;;;;;;;;13.90;99.90;;;;;;5011559;28;19944;-69
2022/05/27 06:53:35;;;;;;;;;;;14.00;99.90;;;;;;4986351;28;19925;-69
2022/05/27 06:56:01;;;;;;;;;;;14.00;99.90;;;;;;4997130;28;19922;-71
2022/05/27 06:58:26;;;;;;;;;;;14.10;99.90;;;;;;4972995;28;19929;-70
2022/05/27 07:00:52;;;;;;;;;;;14.10;99.90;;;;;;4987751;28;19921;-70
2022/05/27 07:03:19;;;;;;;;;;;14.20;99.90;;;;;;4985731;28;19926;-69
2022/05/27 07:05:45;;;;;;;;;;;14.30;99.90;;;;;;4994362;28;19944;-70
2022/05/27 07:08:12;;;;;;;;;;;14.20;99.90;;;;;;5012199;28;20362;-70
2022/05/27 07:10:38;;;;;;;;;;;14.10;99.90;;;;;;4993327;28;19921;-68
2022/05/27 07:13:04;;;;;;;;;;;13.80;99.90;;;;;;4995021;28;19921;-68
2022/05/27 07:15:30;;;;;;;;;;;13.70;99.90;;;;;;4993966;28;20362;-70
2022/05/27 07:17:56;;;;;;;;;;;13.70;99.90;;;;;;5006069;28;19921;-69
2022/05/27 07:20:22;;;;;;;;;;;13.80;99.90;;;;;;4988778;28;19933;-69
2022/05/27 07:22:48;;;;;;;;;;;14.10;99.90;;;;;;4988959;28;19926;-70
2022/05/27 07:25:14;;;;;;;;;;;14.30;99.90;;;;;;4986594;28;19930;-68
2022/05/27 07:27:41;;;;;;;;;;;14.50;99.90;;;;;;4989438;28;19967;-69
2022/05/27 07:30:11;;;;;;;;;;;14.70;99.90;;;;;;5004253;28;19921;-67
2022/05/27 07:32:37;;;;;;;;;;;14.60;99.90;;;;;;4990068;28;19922;-69
2022/05/27 07:35:04;;;;;;;;;;;14.50;99.90;;;;;;5006382;28;20358;-69
2022/05/27 07:37:30;;;;;;;;;;;14.50;99.90;;;;;;5005932;28;19925;-68
2022/05/27 07:39:56;;;;;;;;;;;14.40;99.90;;;;;;5005466;28;20366;-71
2022/05/27 07:42:22;;;;;;;;;;;14.40;99.90;;;;;;5007653;28;19928;-68
2022/05/27 07:44:47;;;;;;;;;;;14.50;99.90;;;;;;4989482;28;19925;-69
2022/05/27 07:47:13;;;;;;;;;;;14.50;99.90;;;;;;4993572;28;19925;-69
2022/05/27 07:49:39;;;;;;;;;;;14.50;99.90;;;;;;4993763;28;19937;-69
2022/05/27 07:52:06;;;;;;;;;;;14.70;99.90;;;;;;4994005;28;19967;-69
2022/05/27 07:54:32;;;;;;;;;;;14.80;99.90;;;;;;5006894;28;19921;-68
2022/05/27 07:56:58;;;;;;;;;;;15.00;99.90;;;;;;4994512;28;20389;-70
2022/05/27 07:59:25;;;;;;;;;;;15.10;99.90;;;;;;4985485;28;20298;-70
2022/05/27 08:01:51;;;;;;;;;;;15.20;99.90;;;;;;4992045;28;19928;-69
2022/05/27 08:04:17;;;;;;;;;;;15.20;99.90;;;;;;4987457;28;20299;-69
2022/05/27 08:06:43;;;;;;;;;;;15.20;99.90;;;;;;4992763;28;19921;-70
2022/05/27 08:09:09;;;;;;;;;;;15.30;99.90;;;;;;4987322;28;20255;-68
2022/05/27 08:11:37;;;;;;;;;;;14.90;99.90;;;;;;4983081;28;19921;-68
2022/05/27 08:14:03;;;;;;;;;;;14.90;99.90;;;;;;5008340;28;20013;-69
2022/05/27 08:16:32;;;;;;;;;;;15.00;99.90;;;;;;4968166;28;19921;-68
2022/05/27 08:18:59;;;;;;;;;;;15.00;99.90;;;;;;4994914;28;20457;-71
2022/05/27 08:21:26;;;;;;;;;;;15.20;99.90;;;;;;4995114;28;19937;-69
2022/05/27 08:23:52;;;;;;;;;;;15.70;99.90;;;;;;4997695;28;20012;-68
2022/05/27 08:26:18;;;;;;;;;;;15.60;99.90;;;;;;4997326;28;19925;-68
2022/05/27 08:28:45;;;;;;;;;;;15.10;99.90;;;;;;4994966;28;19929;-72
2022/05/27 08:31:10;;;;;;;;;;;14.80;99.90;;;;;;4993150;28;19921;-69
2022/05/27 08:39:12;;;;;;;;;;;15.10;99.90;;;;;;4971523;28;20008;-69
2022/05/27 08:41:38;;;;;;;;;;;15.50;99.90;;;;;;4990774;28;19981;-68
2022/05/27 08:44:22;;;;;;;;;;;15.70;99.90;;;;;;5010055;28;20024;-68
2022/05/27 08:46:51;;;;;;;;;;;15.70;99.90;;;;;;4992150;28;19926;-69
2022/05/27 08:49:19;;;;;;;;;;;15.90;99.90;;;;;;4989864;28;19929;-71
2022/05/27 08:51:52;;;;;;;;;;;16.00;99.90;;;;;;4991935;28;20000;-69
2022/05/27 08:54:28;;;;;;;;;;;16.00;99.90;;;;;;4992487;28;20445;-69
2022/05/27 08:59:41;;;;;;;;;;;15.40;99.90;;;;;;5001506;28;20016;-70
2022/05/27 09:02:18;;;;;;;;;;;15.50;99.90;;;;;;5011706;28;19922;-69
2022/05/27 09:04:48;;;;;;;;;;;15.70;99.90;;;;;;4992992;28;20019;-68
2022/05/27 09:07:20;;;;;;;;;;;15.90;99.90;;;;;;4991156;28;20012;-68
2022/05/27 09:09:46;;;;;;;;;;;15.70;99.90;;;;;;4990495;28;19928;-67
2022/05/27 09:12:33;;;;;;;;;;;15.80;99.90;;;;;;4990355;28;19933;-67
2022/05/27 09:15:01;;;;;;;;;;;15.80;99.90;;;;;;4990593;28;19921;-70
2022/05/27 09:17:48;;;;;;;;;;;15.80;99.90;;;;;;4990589;28;19925;-70
2022/05/27 09:20:14;;;;;;;;;;;15.90;99.90;;;;;;4991256;28;19925;-67
2022/05/27 09:22:43;;;;;;;;;;;16.00;99.90;;;;;;4990617;28;19928;-70
2022/05/27 09:25:28;;;;;;;;;;;15.60;99.90;;;;;;4988229;28;19929;-67
2022/05/27 09:28:23;;;;;;;;;;;15.70;99.90;;;;;;4995125;28;20022;-67
2022/05/27 09:30:50;;;;;;;;;;;15.70;99.90;;;;;;4979659;28;20240;-68
2022/05/27 09:33:17;;;;;;;;;;;15.70;99.90;;;;;;4981535;28;20016;-67
2022/05/27 09:35:45;;;;;;;;;;;15.90;99.90;;;;;;4977167;28;19976;-68
2022/05/27 09:38:15;;;;;;;;;;;15.80;99.90;;;;;;4994469;28;20007;-67
2022/05/27 09:40:46;;;;;;;;;;;15.60;99.90;;;;;;4990791;28;19988;-67
2022/05/27 09:43:18;;;;;;;;;;;15.80;99.90;;;;;;4990689;28;19969;-67
2022/05/27 09:45:55;;;;;;;;;;;15.80;99.90;;;;;;5007279;28;19929;-67
2022/05/27 09:48:20;;;;;;;;;;;15.70;99.90;;;;;;4990496;28;19929;-67
2022/05/27 09:50:47;;;;;;;;;;;15.50;99.90;;;;;;4991711;28;19921;-66
2022/05/27 09:53:18;;;;;;;;;;;15.80;99.90;;;;;;4990393;28;19991;-67
2022/05/27 09:56:02;;;;;;;;;;;16.10;99.90;;;;;;4989539;28;20730;-67
2022/05/27 09:58:29;;;;;;;;;;;15.90;99.90;;;;;;4990167;28;19930;-68
2022/05/27 10:00:55;;;;;;;;;;;15.70;99.90;;;;;;4990331;28;19925;-67
2022/05/27 10:03:33;;;;;;;;;;;15.70;99.90;;;;;;4991016;28;19921;-70
2022/05/27 10:06:10;;;;;;;;;;;15.60;99.90;;;;;;4990436;28;19936;-67
2022/05/27 10:08:35;;;;;;;;;;;15.50;99.90;;;;;;4992562;28;19925;-67
2022/05/27 10:11:05;;;;;;;;;;;16.10;99.90;;;;;;4995614;28;19928;-67
2022/05/27 10:13:34;;;;;;;;;;;15.90;99.90;;;;;;4994491;28;20377;-66
2022/05/27 10:16:05;;;;;;;;;;;15.90;99.90;;;;;;4995171;28;19929;-66
2022/05/27 10:18:30;;;;;;;;;;;15.80;99.90;;;;;;4994566;28;20417;-67
2022/05/27 10:21:04;;;;;;;;;;;15.60;99.90;;;;;;4995832;28;19987;-67
2022/05/27 10:23:32;;;;;;;;;;;15.70;99.90;;;;;;4991036;28;19928;-68
2022/05/27 10:25:59;;;;;;;;;;;16.10;99.90;;;;;;4988716;28;20060;-72
2022/05/27 10:28:29;;;;;;;;;;;16.50;99.90;;;;;;4987535;28;19929;-66
2022/05/27 10:30:57;;;;;;;;;;;16.60;99.90;;;;;;4990604;28;20277;-67
2022/05/27 10:33:24;;;;;;;;;;;16.60;99.90;;;;;;4988897;28;19921;-69
2022/05/27 10:35:51;;;;;;;;;;;16.60;99.90;;;;;;4990803;28;20016;-69
2022/05/27 10:38:20;;;;;;;;;;;16.20;99.90;;;;;;4987238;28;19929;-70
2022/05/27 10:41:21;;;;;;;;;;;16.30;99.90;;;;;;4989139;28;19929;-67
2022/05/27 10:44:06;;;;;;;;;;;16.10;99.90;;;;;;4930131;29;19933;-68
2022/05/27 10:46:35;;;;;;;;;;;16.10;99.90;;;;;;5002048;28;19921;-67
2022/05/27 10:49:16;;;;;;;;;;;16.10;99.90;;;;;;4988574;28;19925;-68
2022/05/27 10:51:42;;;;;;;;;;;16.10;99.90;;;;;;4988760;28;20346;-66
2022/05/27 10:54:28;;;;;;;;;;;16.40;99.90;;;;;;5006165;28;20013;-67
2022/05/27 11:03:01;;;;;;;;;;;16.00;99.90;;;;;;4994655;28;20407;-70
2022/05/27 11:05:33;;;;;;;;;;;16.60;99.90;;;;;;4995111;28;19968;-70
2022/05/27 11:07:59;;;;;;;;;;;16.30;99.90;;;;;;4995144;28;19929;-71
2022/05/27 11:10:25;;;;;;;;;;;16.50;99.90;;;;;;4993767;28;19921;-67
2022/05/27 11:15:55;;;;;;;;;;;16.00;99.90;;;;;;5003570;28;20291;-70
2022/05/27 11:18:41;;;;;;;;;;;16.30;99.90;;;;;;5005178;28;19932;-66
2022/05/27 11:21:40;;;;;;;;;;;16.70;99.90;;;;;;5007854;28;20017;-66
2022/05/27 11:24:08;;;;;;;;;;;16.80;99.90;;;;;;4979529;28;19928;-67
2022/05/27 11:26:52;;;;;;;;;;;16.80;99.90;;;;;;4993531;28;19925;-67
2022/05/27 11:29:18;;;;;;;;;;;17.00;99.90;;;;;;4997980;28;20016;-69
2022/05/27 11:31:55;;;;;;;;;;;16.70;99.90;;;;;;4990420;28;20012;-69
2022/05/27 11:34:29;;;;;;;;;;;16.30;99.90;;;;;;4988584;28;19921;-74
2022/05/27 11:37:13;;;;;;;;;;;16.30;99.90;;;;;;4987900;28;20020;-71
2022/05/27 11:39:47;;;;;;;;;;;16.50;99.90;;;;;;5006035;28;19929;-72
2022/05/27 11:42:16;;;;;;;;;;;16.30;99.90;;;;;;4989534;28;20704;-72
2022/05/27 11:44:53;;;;;;;;;;;16.10;99.90;;;;;;5008392;28;20294;-87
2022/05/27 11:47:42;;;;;;;;;;;15.90;99.90;;;;;;4993993;28;20266;-80
2022/05/27 11:50:08;;;;;;;;;;;15.90;99.90;;;;;;5011038;28;19921;-74
2022/05/27 11:52:34;;;;;;;;;;;15.90;99.90;;;;;;5008978;28;19925;-75
2022/05/27 11:55:21;;;;;;;;;;;16.10;99.90;;;;;;4993547;28;19967;-80
2022/05/27 11:58:05;;;;;;;;;;;16.00;99.90;;;;;;4989519;28;19933;-77
2022/05/27 12:00:36;;;;;;;;;;;15.70;99.90;;;;;;4992037;28;20452;-75
2022/05/27 12:03:08;;;;;;;;;;;15.80;99.90;;;;;;4992875;28;20370;-78
2022/05/27 12:05:37;;;;;;;;;;;16.00;99.90;;;;;;5008362;28;20370;-76
2022/05/27 12:08:03;;;;;;;;;;;16.00;99.90;;;;;;5008599;28;19927;-81
2022/05/27 12:10:29;;;;;;;;;;;16.10;99.90;;;;;;5009806;28;19948;-83
2022/05/27 12:13:22;;;;;;;;;;;16.20;99.90;;;;;;4990811;28;19928;-85
2022/05/27 12:15:52;;;;;;;;;;;15.90;99.90;;;;;;4975352;28;19933;-75
2022/05/27 12:18:39;;;;;;;;;;;15.80;99.90;;;;;;4991309;28;20264;-73
2022/05/27 12:21:07;;;;;;;;;;;15.50;99.90;;;;;;4991553;28;20071;-76
2022/05/27 12:23:35;;;;;;;;;;;15.30;99.90;;;;;;4989431;28;19957;-81
2022/05/27 12:26:01;;;;;;;;;;;15.30;99.90;;;;;;4989103;28;19921;-74
2022/05/27 12:28:29;;;;;;;;;;;15.40;99.90;;;;;;4990149;28;19921;-76
2022/05/27 12:30:56;;;;;;;;;;;15.50;99.90;;;;;;4992190;28;20278;-75
2022/05/27 12:33:24;;;;;;;;;;;15.50;99.90;;;;;;4991965;28;19928;-75
2022/05/27 12:36:01;;;;;;;;;;;15.50;99.90;;;;;;4977440;28;19921;-74
2022/05/27 12:38:32;;;;;;;;;;;15.40;99.90;;;;;;5010003;28;19928;-76
2022/05/27 12:41:00;;;;;;;;;;;15.50;99.90;;;;;;4992409;28;19925;-77
2022/05/27 12:43:28;;;;;;;;;;;15.70;99.90;;;;;;4990852;28;20384;-79
2022/05/27 12:45:55;;;;;;;;;;;15.80;99.90;;;;;;4991650;28;21697;-80
2022/05/27 12:48:42;;;;;;;;;;;15.70;99.90;;;;;;4974200;28;19941;-81
2022/05/27 12:51:30;;;;;;;;;;;15.50;99.90;;;;;;5005314;28;20008;-79
2022/05/27 12:53:57;;;;;;;;;;;15.80;99.90;;;;;;4976276;28;20263;-76
2022/05/27 13:02:14;;;;;;;;;;;16.80;99.90;;;;;;4990529;28;19921;-77
2022/05/27 13:04:48;;;;;;;;;;;17.20;99.90;;;;;;4990498;28;19921;-81
2022/05/27 13:07:14;;;;;;;;;;;17.60;99.90;;;;;;5006866;28;20374;-79
2022/05/27 13:09:46;;;;;;;;;;;17.50;99.90;;;;;;4990295;28;19925;-82
2022/05/27 13:12:35;;;;;;;;;;;17.40;99.90;;;;;;4990995;28;19928;-74
2022/05/27 13:15:10;;;;;;;;;;;17.80;99.90;;;;;;4999521;28;19927;-75
2022/05/27 13:17:42;;;;;;;;;;;17.00;99.90;;;;;;4995905;28;19932;-76
2022/05/27 13:20:08;;;;;;;;;;;16.70;99.90;;;;;;4996042;28;19921;-76
2022/05/27 13:22:57;;;;;;;;;;;17.30;99.90;;;;;;4994240;28;19975;-75
2022/05/27 13:25:29;;;;;;;;;;;17.20;99.90;;;;;;4981579;28;19936;-75
2022/05/27 13:27:59;;;;;;;;;;;17.00;99.90;;;;;;4993185;28;19995;-75
2022/05/27 13:30:44;;;;;;;;;;;17.60;99.90;;;;;;4991774;28;19925;-75
2022/05/27 13:33:11;;;;;;;;;;;18.30;99.90;;;;;;4988696;28;20007;-77
2022/05/27 13:35:40;;;;;;;;;;;18.00;99.90;;;;;;4991599;28;19921;-75
2022/05/27 13:38:09;;;;;;;;;;;17.40;98.00;;;;;;5005387;28;19925;-75
2022/05/27 13:40:35;;;;;;;;;;;17.30;99.80;;;;;;4975714;28;20028;-75
2022/05/27 13:43:09;;;;;;;;;;;17.50;94.00;;;;;;4990283;28;19930;-73
2022/05/27 13:45:43;;;;;;;;;;;17.80;88.80;;;;;;5005846;28;19925;-75
2022/05/27 13:48:13;;;;;;;;;;;17.40;88.70;;;;;;4989849;28;19925;-74
2022/05/27 13:50:41;;;;;;;;;;;17.50;94.60;;;;;;5008497;28;19928;-73
2022/05/27 13:53:26;;;;;;;;;;;17.60;78.90;;;;;;4989269;28;19928;-77
2022/05/27 13:55:53;;;;;;;;;;;17.80;96.80;;;;;;4989657;28;19929;-73
2022/05/27 13:58:20;;;;;;;;;;;18.10;92.70;;;;;;4990092;28;20389;-74
2022/05/27 14:00:46;;;;;;;;;;;17.50;91.50;;;;;;4990520;28;19921;-74
2022/05/27 14:03:22;;;;;;;;;;;16.90;99.80;;;;;;4989504;28;19921;-74
2022/05/27 14:05:56;;;;;;;;;;;16.90;99.90;;;;;;4989417;28;20450;-74
2022/05/27 14:08:31;;;;;;;;;;;17.40;99.90;;;;;;4990728;28;19922;-72
2022/05/27 14:13:28;;;;;;;;;;;17.00;99.90;;;;;;4973221;28;19921;-71
2022/05/27 14:18:33;;;;;;;10.57;1.90;;;16.80;99.90;;;;;;5067078;27;20500;-72
2022/05/27 14:23:48;;;;;;;20.48;2.55;;;16.50;99.90;;;;;;5039816;28;20057;-72
2022/05/27 14:26:14;;;;;;;10.43;2.08;;;16.30;99.90;;;;;;5099949;28;20139;-74
2022/05/27 14:28:49;;;;;;;7.68;1.77;;;17.00;99.90;;;;;;5064845;28;20393;-72
2022/05/27 14:31:15;;;;;;;8.32;1.38;;;16.90;99.90;;;;;;5051247;28;20523;-73
2022/05/27 14:33:53;;;;;;;9.60;1.60;;;16.60;99.90;;;;;;5066077;28;20095;-70
2022/05/27 14:36:22;;;;;;;8.73;1.77;;;16.90;99.90;;;;;;5081901;28;20059;-71
2022/05/27 14:38:51;;;;;;;9.27;1.88;;;17.10;99.90;;;;;;5052068;28;20045;-70
2022/05/27 14:41:28;;;;;;;13.80;2.42;;;16.70;99.90;;;;;;5081997;28;20037;-71
2022/05/27 14:43:57;;;;;;;8.35;1.50;;;17.00;99.90;;;;;;5049834;28;20071;-72
2022/05/27 14:46:27;;;;;;;8.88;1.52;;;17.50;99.90;;;;;;5082145;28;20070;-71
2022/05/27 14:49:02;;;;;;;10.70;2.05;;;17.80;99.90;;;;;;5066784;28;20110;-72
2022/05/27 14:51:40;;;;;;;10.52;2.08;;;17.50;98.00;;;;;;5063112;28;20045;-73
2022/05/27 14:54:35;;;;;;;9.23;2.05;;;17.60;94.30;;;;;;5066419;28;20048;-72
2022/05/27 14:57:25;;;;;;;8.73;1.77;;;17.40;94.60;;;;;;5086574;28;20068;-73
2022/05/27 15:00:24;;;;;;;10.38;2.00;;;17.30;99.90;;;;;;5044013;28;20052;-72
2022/05/27 15:02:52;;;;;;;10.07;1.60;;;17.50;99.50;;;;;;5071474;28;20480;-75
2022/05/27 15:05:27;;;;;;;10.73;1.98;;;17.10;99.90;;;;;;5072601;28;20052;-73
2022/05/27 15:08:19;;;;;;;8.32;1.60;;;16.80;97.50;;;;;;5075245;28;20047;-73
2022/05/27 15:11:20;;;;;;;8.50;1.70;;;16.40;99.90;;;;;;5080517;28;20048;-75
2022/05/27 15:13:58;;;;;;;11.05;2.00;;;16.60;99.90;;;;;;5068237;28;20052;-76